Time;durP1;ratioP1;P1;durP2;ratioP2;P2;SDS_P1;SDS_P2;PMS_P1;PMS_P2;Temp;Humidity;BMP_temperature;BMP_pressure;BME280_temperature;BME280_humidity;BME280_pressure;Samples;Min_cycle;Max_cycle;Signal;HPM_P1;HPM_P2
2020/12/07 00:01:45;;;;;;;19.33;15.53;;;8.10;99.90;;;;;;6191438;28;20485;-63
2020/12/07 00:04:48;;;;;;;19.70;17.50;;;8.10;99.90;;;;;;6189793;28;20485;-63
2020/12/07 00:07:50;;;;;;;21.60;18.37;;;8.10;99.90;;;;;;6179549;28;20484;-62
2020/12/07 00:10:52;;;;;;;19.17;15.73;;;8.20;99.90;;;;;;6179324;28;20592;-63
2020/12/07 00:13:56;;;;;;;19.27;15.70;;;8.20;99.90;;;;;;6179448;28;20838;-62
2020/12/07 00:16:58;;;;;;;19.17;15.67;;;8.20;99.90;;;;;;6179080;28;20482;-65
2020/12/07 00:20:01;;;;;;;19.73;17.53;;;8.20;99.90;;;;;;6179205;28;20486;-61
2020/12/07 00:23:03;;;;;;;18.87;15.77;;;8.20;99.90;;;;;;6179308;28;20470;-63
2020/12/07 00:26:08;;;;;;;16.83;15.17;;;8.20;99.90;;;;;;6180777;28;20595;-59
2020/12/07 00:29:11;;;;;;;20.13;16.97;;;8.20;99.90;;;;;;6185953;28;20577;-60
2020/12/07 00:32:14;;;;;;;18.90;15.97;;;8.20;99.90;;;;;;6188504;28;20572;-60
2020/12/07 00:35:16;;;;;;;17.00;15.13;;;8.30;99.90;;;;;;6185725;28;20783;-60
2020/12/07 00:38:18;;;;;;;17.87;13.93;;;8.20;99.90;;;;;;6188480;28;20977;-60
2020/12/07 00:41:22;;;;;;;16.73;14.93;;;8.30;99.90;;;;;;6189890;28;20488;-60
2020/12/07 00:44:25;;;;;;;18.70;15.30;;;8.00;99.90;;;;;;6188830;28;20445;-60
2020/12/07 00:47:27;;;;;;;18.67;14.80;;;8.00;99.90;;;;;;6189246;28;20464;-60
2020/12/07 00:50:30;;;;;;;17.37;14.50;;;8.00;99.90;;;;;;6185497;28;20775;-61
2020/12/07 00:53:33;;;;;;;17.13;15.17;;;8.10;99.90;;;;;;6178707;28;20466;-61
2020/12/07 00:56:35;;;;;;;16.17;14.47;;;8.20;99.90;;;;;;6178526;28;20469;-60
2020/12/07 00:59:39;;;;;;;16.23;14.30;;;8.30;99.90;;;;;;6168877;28;20831;-61
2020/12/07 01:02:41;;;;;;;17.43;14.63;;;8.30;99.90;;;;;;6154609;28;20546;-59
2020/12/07 01:05:43;;;;;;;15.60;14.00;;;8.30;99.90;;;;;;6154411;29;20475;-60
2020/12/07 01:08:46;;;;;;;14.57;13.00;;;8.30;99.90;;;;;;6154454;28;20474;-61
2020/12/07 01:11:54;;;;;;;15.93;13.40;;;8.30;99.90;;;;;;6151714;29;20482;-61
2020/12/07 01:14:57;;;;;;;14.73;13.20;;;8.20;99.90;;;;;;6152311;29;20478;-61
2020/12/07 01:17:59;;;;;;;16.63;13.70;;;8.20;99.90;;;;;;6152010;28;20471;-61
2020/12/07 01:21:02;;;;;;;16.50;14.67;;;8.30;99.90;;;;;;6151970;29;20470;-61
2020/12/07 01:24:04;;;;;;;15.90;14.23;;;8.30;99.90;;;;;;6152267;28;20489;-59
2020/12/07 01:27:07;;;;;;;15.83;13.67;;;8.30;99.90;;;;;;6153529;29;20973;-59
2020/12/07 01:30:10;;;;;;;16.70;13.47;;;8.30;99.90;;;;;;6153624;28;20821;-60
2020/12/07 01:33:12;;;;;;;15.27;13.63;;;8.40;99.90;;;;;;6153861;29;20479;-60
2020/12/07 01:36:15;;;;;;;15.00;12.80;;;8.40;99.90;;;;;;6149378;29;20993;-60
2020/12/07 01:39:17;;;;;;;15.07;13.53;;;8.40;99.90;;;;;;6153374;29;20991;-60
2020/12/07 01:42:19;;;;;;;15.70;14.10;;;8.40;99.90;;;;;;6153384;28;20483;-60
2020/12/07 01:45:23;;;;;;;14.40;13.00;;;8.40;99.90;;;;;;6184314;28;20475;-60
2020/12/07 01:48:25;;;;;;;14.27;12.57;;;8.40;99.90;;;;;;6193655;28;20483;-60
2020/12/07 01:51:27;;;;;;;15.57;13.87;;;8.40;99.90;;;;;;6189033;28;20474;-60
2020/12/07 01:54:30;;;;;;;19.57;14.20;;;8.40;99.90;;;;;;6182487;28;20473;-60
2020/12/07 01:57:32;;;;;;;15.43;13.83;;;8.30;99.90;;;;;;6190857;28;20465;-60
2020/12/07 02:00:36;;;;;;;15.17;13.50;;;8.40;99.90;;;;;;6179645;28;21104;-60
2020/12/07 02:03:38;;;;;;;17.30;14.37;;;8.30;99.90;;;;;;6190943;28;20473;-60
2020/12/07 02:06:40;;;;;;;15.10;13.50;;;8.40;99.90;;;;;;6198066;28;20484;-60
2020/12/07 02:09:42;;;;;;;13.77;12.37;;;8.30;99.90;;;;;;6201197;28;20488;-60
2020/12/07 02:12:45;;;;;;;16.00;14.30;;;8.40;99.90;;;;;;6201319;28;20984;-60
2020/12/07 02:15:48;;;;;;;15.60;13.70;;;8.30;99.90;;;;;;6201046;28;20473;-60
2020/12/07 02:18:55;;;;;;;15.77;14.00;;;8.30;99.90;;;;;;6201139;28;20827;-61
2020/12/07 02:21:59;;;;;;;17.10;14.97;;;8.30;99.90;;;;;;6201722;28;20477;-60
2020/12/07 02:25:01;;;;;;;16.80;15.10;;;8.30;99.90;;;;;;6201057;28;20977;-61
2020/12/07 02:28:03;;;;;;;17.33;14.63;;;8.30;99.90;;;;;;6201191;28;20819;-60
2020/12/07 02:31:05;;;;;;;16.43;14.30;;;8.30;99.90;;;;;;6200974;28;20487;-60
2020/12/07 02:34:08;;;;;;;16.97;14.80;;;8.30;99.90;;;;;;6201074;28;20483;-60
2020/12/07 02:37:11;;;;;;;16.93;15.13;;;8.30;99.90;;;;;;6200898;28;20472;-61
2020/12/07 02:40:15;;;;;;;19.20;15.07;;;8.30;99.90;;;;;;6192175;28;20476;-61
2020/12/07 02:43:17;;;;;;;18.40;16.30;;;8.30;99.90;;;;;;6200809;28;20481;-60
2020/12/07 02:46:20;;;;;;;20.70;14.80;;;8.20;99.90;;;;;;6200823;28;20483;-60
2020/12/07 02:49:22;;;;;;;17.03;14.20;;;8.20;99.90;;;;;;6200483;28;20991;-62
2020/12/07 02:52:28;;;;;;;18.73;13.83;;;8.20;99.90;;;;;;6201181;28;20991;-60
2020/12/07 02:55:31;;;;;;;21.30;15.50;;;8.20;99.90;;;;;;6200997;28;20943;-60
2020/12/07 02:58:33;;;;;;;21.47;13.67;;;8.20;99.90;;;;;;6200947;28;20507;-61
2020/12/07 03:01:35;;;;;;;15.83;13.60;;;8.20;99.90;;;;;;6200770;28;20481;-61
2020/12/07 03:04:38;;;;;;;17.53;15.73;;;8.30;99.90;;;;;;6200360;28;20481;-60
2020/12/07 03:07:41;;;;;;;16.17;14.47;;;8.20;99.90;;;;;;6200829;28;21015;-60
2020/12/07 03:10:43;;;;;;;17.63;14.80;;;8.20;99.90;;;;;;6200290;28;20850;-61
2020/12/07 03:13:45;;;;;;;17.90;14.73;;;8.20;99.90;;;;;;6200456;28;20480;-61
2020/12/07 03:16:47;;;;;;;16.07;14.43;;;8.20;99.90;;;;;;6200519;28;20488;-60
2020/12/07 03:19:50;;;;;;;16.87;13.63;;;8.20;99.90;;;;;;6200318;28;21004;-61
2020/12/07 03:22:53;;;;;;;16.30;13.77;;;8.20;99.90;;;;;;6200665;28;20498;-60
2020/12/07 03:25:55;;;;;;;16.20;14.27;;;8.20;99.90;;;;;;6200433;28;20476;-61
2020/12/07 03:28:57;;;;;;;16.10;14.40;;;8.20;99.90;;;;;;6204688;28;20968;-61
2020/12/07 03:31:59;;;;;;;16.63;14.00;;;8.20;99.90;;;;;;6205036;28;20822;-61
2020/12/07 03:35:02;;;;;;;16.37;14.10;;;8.30;99.90;;;;;;6206293;28;20816;-59
2020/12/07 03:38:05;;;;;;;18.43;13.83;;;8.30;99.90;;;;;;6207700;28;20473;-60
2020/12/07 03:41:07;;;;;;;14.23;12.50;;;8.30;99.90;;;;;;6209742;28;20477;-61
2020/12/07 03:44:10;;;;;;;14.93;12.47;;;8.30;99.90;;;;;;6205366;28;20460;-61
2020/12/07 03:47:12;;;;;;;14.17;12.70;;;8.30;99.90;;;;;;6204089;28;20906;-60
2020/12/07 03:50:14;;;;;;;13.43;12.03;;;8.30;99.90;;;;;;6204138;28;20793;-60
2020/12/07 03:53:17;;;;;;;14.13;12.47;;;8.30;99.90;;;;;;6204489;28;20483;-59
2020/12/07 03:56:20;;;;;;;14.57;13.07;;;8.30;99.90;;;;;;6203966;28;20445;-60
2020/12/07 03:59:22;;;;;;;14.47;12.97;;;8.30;99.90;;;;;;6204152;28;20488;-61
2020/12/07 04:02:24;;;;;;;14.80;12.97;;;8.30;99.90;;;;;;6203886;28;20945;-60
2020/12/07 04:05:30;;;;;;;16.57;12.20;;;8.30;99.90;;;;;;6204031;28;20445;-60
2020/12/07 04:08:33;;;;;;;16.00;12.73;;;8.20;99.90;;;;;;6204000;28;20480;-61
2020/12/07 04:11:36;;;;;;;14.67;13.17;;;8.20;99.90;;;;;;6203746;28;20488;-60
2020/12/07 04:14:38;;;;;;;14.40;12.80;;;8.20;99.90;;;;;;6203779;28;20966;-61
2020/12/07 04:17:40;;;;;;;14.77;13.17;;;8.20;99.90;;;;;;6203975;28;20764;-60
2020/12/07 04:20:42;;;;;;;14.17;12.67;;;8.20;99.90;;;;;;6203969;28;20469;-61
2020/12/07 04:23:46;;;;;;;13.57;12.10;;;8.20;99.90;;;;;;6203802;28;20957;-60
2020/12/07 04:26:49;;;;;;;14.40;12.90;;;8.30;99.90;;;;;;6204004;28;20483;-60
2020/12/07 04:29:51;;;;;;;15.50;13.87;;;8.30;99.90;;;;;;6203850;28;20477;-60
2020/12/07 04:32:53;;;;;;;12.57;10.47;;;8.30;99.90;;;;;;6203454;28;20475;-61
2020/12/07 04:35:56;;;;;;;14.03;11.20;;;8.30;99.90;;;;;;6203280;28;20992;-61
2020/12/07 04:38:59;;;;;;;12.43;11.20;;;8.30;99.90;;;;;;6203244;28;20507;-60
2020/12/07 04:42:03;;;;;;;11.73;10.30;;;8.30;99.90;;;;;;6202770;28;20988;-61
2020/12/07 04:45:05;;;;;;;14.43;10.87;;;8.20;99.90;;;;;;6198816;28;20469;-60
2020/12/07 04:48:09;;;;;;;11.63;10.53;;;8.20;99.90;;;;;;6203081;28;20481;-60
2020/12/07 04:51:11;;;;;;;10.40;9.40;;;8.20;99.90;;;;;;6202530;28;20821;-61
2020/12/07 04:54:15;;;;;;;11.57;10.07;;;8.20;99.90;;;;;;6203004;28;20480;-61
2020/12/07 04:57:18;;;;;;;15.10;9.63;;;8.20;99.90;;;;;;6202951;28;20998;-61
2020/12/07 05:00:23;;;;;;;10.00;8.67;;;8.20;99.90;;;;;;6202584;28;20977;-61
2020/12/07 05:03:26;;;;;;;9.20;8.30;;;8.20;99.90;;;;;;6202959;28;20473;-61
2020/12/07 05:06:30;;;;;;;9.80;8.80;;;8.20;99.90;;;;;;6202514;28;20973;-61
2020/12/07 05:09:35;;;;;;;8.90;8.10;;;8.20;99.90;;;;;;6202434;28;20523;-61
2020/12/07 05:12:40;;;;;;;9.30;8.40;;;8.20;99.90;;;;;;6202070;28;20488;-60
2020/12/07 05:15:43;;;;;;;10.10;9.10;;;8.20;99.90;;;;;;6202671;28;20474;-60
2020/12/07 05:18:46;;;;;;;9.03;8.00;;;8.20;99.90;;;;;;6202084;28;20560;-61
2020/12/07 05:21:52;;;;;;;9.83;8.83;;;8.20;99.90;;;;;;6202135;28;20481;-60
2020/12/07 05:24:55;;;;;;;9.73;8.83;;;8.20;99.90;;;;;;6202464;28;20468;-60
2020/12/07 05:27:59;;;;;;;11.77;10.20;;;8.30;99.90;;;;;;6201890;28;20803;-59
2020/12/07 05:31:01;;;;;;;13.70;12.30;;;8.30;99.90;;;;;;6201869;28;20491;-60
2020/12/07 05:34:05;;;;;;;11.87;10.70;;;8.30;99.90;;;;;;6202087;28;20472;-60
2020/12/07 05:37:08;;;;;;;9.27;8.37;;;8.30;99.90;;;;;;6201874;28;20539;-60
2020/12/07 05:40:12;;;;;;;8.53;7.73;;;8.30;99.90;;;;;;6202167;28;20481;-60
2020/12/07 05:43:16;;;;;;;7.87;7.20;;;8.30;99.90;;;;;;6201707;28;20477;-60
2020/12/07 05:46:18;;;;;;;7.57;6.83;;;8.30;99.90;;;;;;6201755;28;21010;-60
2020/12/07 05:49:24;;;;;;;8.67;7.87;;;8.30;99.90;;;;;;6200894;28;20968;-60
2020/12/07 05:52:35;;;;;;;9.13;8.23;;;8.20;99.90;;;;;;6202011;28;20531;-61
2020/12/07 05:55:38;;;;;;;8.93;7.57;;;8.20;99.90;;;;;;6201739;28;20469;-61
2020/12/07 05:58:50;;;;;;;9.03;8.23;;;8.20;99.90;;;;;;6201233;28;20477;-61
2020/12/07 06:01:52;;;;;;;8.47;7.73;;;8.20;99.90;;;;;;6200920;28;20488;-59
2020/12/07 06:04:58;;;;;;;8.57;7.77;;;8.20;99.90;;;;;;6201354;28;20469;-59
2020/12/07 06:08:06;;;;;;;8.27;7.57;;;8.20;99.90;;;;;;6201870;28;20473;-59
2020/12/07 06:11:12;;;;;;;8.67;7.87;;;8.20;99.90;;;;;;6201422;28;20476;-60
2020/12/07 06:14:16;;;;;;;8.27;7.47;;;8.20;99.90;;;;;;6201272;28;20446;-60
2020/12/07 06:17:24;;;;;;;9.50;8.60;;;8.20;99.90;;;;;;6201369;28;20452;-60
2020/12/07 06:20:31;;;;;;;8.47;7.67;;;8.20;99.90;;;;;;6201103;28;20485;-59
2020/12/07 06:23:36;;;;;;;8.33;7.53;;;8.30;99.90;;;;;;6201382;28;20472;-60
2020/12/07 06:26:42;;;;;;;8.77;8.03;;;8.30;99.90;;;;;;6201085;28;20483;-60
2020/12/07 06:29:57;;;;;;;9.07;8.17;;;8.30;99.90;;;;;;6201061;28;20480;-60
2020/12/07 06:33:07;;;;;;;8.10;7.30;;;8.20;99.90;;;;;;6201289;28;20474;-60
2020/12/07 06:36:28;;;;;;;8.87;8.07;;;8.20;99.90;;;;;;6200725;28;20918;-60
2020/12/07 06:39:42;;;;;;;8.93;7.40;;;8.10;99.90;;;;;;6201224;28;20485;-60
2020/12/07 06:42:47;;;;;;;8.87;8.00;;;8.10;99.90;;;;;;6200849;28;20470;-60
2020/12/07 06:45:49;;;;;;;9.63;8.73;;;8.20;99.90;;;;;;6200694;28;20894;-60
2020/12/07 06:48:55;;;;;;;8.43;7.63;;;8.20;99.90;;;;;;6200976;28;20488;-60
2020/12/07 06:52:03;;;;;;;8.60;7.80;;;8.20;99.90;;;;;;6201034;28;20492;-61
2020/12/07 06:55:08;;;;;;;8.67;7.93;;;8.20;99.90;;;;;;6192049;28;20480;-61
2020/12/07 06:58:32;;;;;;;10.10;9.10;;;8.20;99.90;;;;;;6200787;28;21047;-61
2020/12/07 07:01:37;;;;;;;10.60;9.50;;;8.20;99.90;;;;;;6201964;28;20631;-61
2020/12/07 07:04:39;;;;;;;11.23;10.17;;;8.30;99.90;;;;;;6202756;28;20489;-61
2020/12/07 07:07:42;;;;;;;9.83;8.83;;;8.30;99.90;;;;;;6202899;28;20575;-60
2020/12/07 07:10:44;;;;;;;10.80;9.70;;;8.30;99.90;;;;;;6202802;28;20547;-60
2020/12/07 07:13:49;;;;;;;10.50;9.40;;;8.30;99.90;;;;;;6203506;28;20473;-60
2020/12/07 07:16:51;;;;;;;12.03;10.00;;;8.30;99.90;;;;;;6204416;28;20484;-61
2020/12/07 07:19:54;;;;;;;10.27;9.27;;;8.30;99.90;;;;;;6204978;28;20480;-61
2020/12/07 07:22:58;;;;;;;11.03;9.83;;;8.40;99.90;;;;;;6204855;28;20476;-60
2020/12/07 07:26:14;;;;;;;11.50;10.00;;;8.40;99.90;;;;;;6204743;28;20472;-60
2020/12/07 07:29:17;;;;;;;12.40;9.53;;;8.30;99.90;;;;;;6204852;28;20456;-60
2020/12/07 07:32:21;;;;;;;16.27;10.00;;;8.40;99.90;;;;;;6205610;28;20461;-60
2020/12/07 07:35:24;;;;;;;12.70;11.40;;;8.30;99.90;;;;;;6204664;28;20441;-60
2020/12/07 07:38:29;;;;;;;16.33;11.60;;;8.30;99.90;;;;;;6204813;28;20491;-60
2020/12/07 07:41:31;;;;;;;13.43;10.90;;;8.30;99.90;;;;;;6204360;28;20457;-60
2020/12/07 07:44:35;;;;;;;12.53;11.33;;;8.40;99.90;;;;;;6204869;28;20514;-61
2020/12/07 07:47:46;;;;;;;13.50;12.00;;;8.40;99.90;;;;;;6189612;28;20477;-61
2020/12/07 07:51:02;;;;;;;16.77;12.67;;;8.40;99.90;;;;;;6193549;28;20957;-61
2020/12/07 08:18:01;;;;;;;21.70;14.97;;;8.60;99.90;;;;;;6129786;29;20559;-61
2020/12/07 08:21:05;;;;;;;18.70;14.77;;;8.60;99.90;;;;;;6179578;28;20493;-61
2020/12/07 08:24:09;;;;;;;23.83;16.20;;;8.60;99.90;;;;;;6179348;28;20500;-61
2020/12/07 08:27:12;;;;;;;21.53;16.43;;;8.60;99.90;;;;;;6179435;28;20482;-59
2020/12/07 08:30:15;;;;;;;25.30;15.60;;;8.60;99.90;;;;;;6179572;28;20493;-60
2020/12/07 08:33:18;;;;;;;24.70;16.50;;;8.70;99.90;;;;;;6179086;28;20481;-60
2020/12/07 08:36:23;;;;;;;27.07;17.43;;;8.60;99.90;;;;;;6179225;28;20469;-60
2020/12/07 08:39:25;;;;;;;28.13;19.80;;;8.60;99.90;;;;;;6178848;28;20494;-59
2020/12/07 08:42:33;;;;;;;28.07;17.93;;;8.70;99.90;;;;;;6178776;28;20904;-60
2020/12/07 08:45:36;;;;;;;25.90;17.60;;;8.70;99.90;;;;;;6179440;28;20484;-60
2020/12/07 08:48:39;;;;;;;29.10;18.13;;;8.70;99.90;;;;;;6178791;28;20535;-60
2020/12/07 08:51:42;;;;;;;25.30;15.83;;;8.70;99.90;;;;;;6179067;28;20552;-61
2020/12/07 08:54:44;;;;;;;28.10;15.80;;;8.70;99.90;;;;;;6179137;28;20466;-61
2020/12/07 08:57:47;;;;;;;31.03;17.83;;;8.70;99.90;;;;;;6178706;28;20501;-60
2020/12/07 09:00:49;;;;;;;26.43;16.90;;;8.70;99.90;;;;;;6173587;28;20617;-61
2020/12/07 09:03:52;;;;;;;28.50;19.73;;;8.80;99.90;;;;;;6156452;28;20475;-62
2020/12/07 09:06:55;;;;;;;26.73;18.30;;;8.80;99.90;;;;;;6177781;28;20489;-65
2020/12/07 09:09:57;;;;;;;31.53;17.10;;;8.70;99.90;;;;;;6162122;28;20486;-61
2020/12/07 09:12:59;;;;;;;31.57;19.10;;;8.70;99.90;;;;;;6153255;29;20983;-63
2020/12/07 09:16:03;;;;;;;28.00;17.83;;;8.70;99.90;;;;;;6154499;28;20823;-63
2020/12/07 09:19:06;;;;;;;34.43;18.70;;;8.70;99.90;;;;;;6174298;28;20584;-64
2020/12/07 09:22:09;;;;;;;27.90;17.37;;;8.70;99.90;;;;;;6178112;28;20553;-62
2020/12/07 09:25:12;;;;;;;27.03;17.50;;;8.80;99.90;;;;;;6176754;28;20822;-63
2020/12/07 09:28:15;;;;;;;30.47;18.03;;;8.80;99.90;;;;;;6178158;28;20557;-63
2020/12/07 09:31:17;;;;;;;25.27;16.73;;;8.90;99.90;;;;;;6177759;28;20485;-64
2020/12/07 09:34:20;;;;;;;27.63;18.50;;;9.10;99.90;;;;;;6171941;28;20471;-64
2020/12/07 09:37:22;;;;;;;25.77;16.93;;;9.30;99.90;;;;;;6153884;29;20497;-64
2020/12/07 09:40:25;;;;;;;25.53;17.20;;;9.40;99.90;;;;;;6153063;29;20994;-64
2020/12/07 09:43:28;;;;;;;21.00;14.87;;;9.40;99.90;;;;;;6153562;29;20482;-63
2020/12/07 09:46:31;;;;;;;26.23;15.70;;;9.40;99.90;;;;;;6153745;29;20474;-62
2020/12/07 09:49:34;;;;;;;24.07;15.93;;;9.50;99.90;;;;;;6153095;29;20825;-64
2020/12/07 09:52:37;;;;;;;22.80;16.30;;;9.50;99.90;;;;;;6153078;29;20474;-63
2020/12/07 09:55:39;;;;;;;24.00;16.70;;;9.50;99.90;;;;;;6153542;29;20478;-64
2020/12/07 09:58:42;;;;;;;24.23;14.93;;;9.50;99.90;;;;;;6153170;29;20489;-62
2020/12/07 10:01:47;;;;;;;19.23;15.03;;;9.40;99.90;;;;;;6153196;28;20528;-62
2020/12/07 10:04:51;;;;;;;14.90;13.17;;;9.30;99.90;;;;;;6153242;29;20990;-62
2020/12/07 10:07:54;;;;;;;16.60;13.17;;;9.30;99.90;;;;;;6150143;28;20482;-62
2020/12/07 10:10:56;;;;;;;17.67;13.20;;;9.30;99.90;;;;;;6176785;28;20485;-62
2020/12/07 10:14:01;;;;;;;19.27;13.77;;;9.30;99.90;;;;;;6176831;28;20477;-62
2020/12/07 10:17:04;;;;;;;19.07;14.87;;;9.20;99.90;;;;;;6176542;28;20486;-63
2020/12/07 10:20:08;;;;;;;19.37;15.33;;;9.20;99.90;;;;;;6176604;28;20974;-62
2020/12/07 10:23:10;;;;;;;21.80;15.60;;;9.30;99.90;;;;;;6177235;28;20481;-64
2020/12/07 10:26:13;;;;;;;20.70;15.87;;;9.30;99.90;;;;;;6176382;28;20488;-63
2020/12/07 10:29:16;;;;;;;21.50;13.90;;;9.30;99.90;;;;;;6176235;28;20926;-61
2020/12/07 10:32:19;;;;;;;19.43;14.10;;;9.30;99.90;;;;;;6176474;28;20462;-62
2020/12/07 10:35:22;;;;;;;21.60;14.87;;;9.20;99.90;;;;;;6177207;28;20442;-62
2020/12/07 10:38:37;;;;;;;20.80;15.50;;;9.30;99.90;;;;;;6181471;28;20462;-64
2020/12/07 10:41:40;;;;;;;26.13;16.70;;;9.20;99.90;;;;;;6180908;28;20477;-65
2020/12/07 10:44:43;;;;;;;19.40;15.20;;;9.30;99.90;;;;;;6181362;28;20552;-63
2020/12/07 10:47:45;;;;;;;20.90;15.93;;;9.40;99.90;;;;;;6180981;28;20469;-63
2020/12/07 10:50:49;;;;;;;19.63;14.20;;;9.60;99.90;;;;;;6180921;28;20473;-63
2020/12/07 10:53:51;;;;;;;16.70;14.23;;;9.70;99.90;;;;;;6181073;28;20480;-65
2020/12/07 10:56:53;;;;;;;20.10;14.37;;;9.80;99.90;;;;;;6181135;28;20466;-64
2020/12/07 10:59:56;;;;;;;18.47;13.93;;;10.00;99.90;;;;;;6180619;28;20489;-64
2020/12/07 11:02:58;;;;;;;17.37;13.13;;;10.00;99.90;;;;;;6162659;28;20545;-64
2020/12/07 11:06:10;;;;;;;17.50;14.30;;;10.20;99.90;;;;;;6156431;28;21014;-63
2020/12/07 11:09:13;;;;;;;22.40;14.60;;;10.10;99.90;;;;;;6168475;28;20488;-65
2020/12/07 11:12:20;;;;;;;17.93;14.03;;;10.10;99.90;;;;;;6180284;28;20469;-63
2020/12/07 11:15:22;;;;;;;19.10;15.47;;;10.00;99.90;;;;;;6179994;28;20981;-63
2020/12/07 11:18:26;;;;;;;20.03;14.80;;;9.90;99.90;;;;;;6180170;28;20520;-63
2020/12/07 11:21:29;;;;;;;17.97;14.70;;;9.90;99.90;;;;;;6180338;28;20469;-65
2020/12/07 11:24:31;;;;;;;22.30;14.83;;;9.80;99.90;;;;;;6179935;28;20817;-61
2020/12/07 11:27:34;;;;;;;21.57;16.63;;;9.70;99.90;;;;;;6180319;28;20481;-60
2020/12/07 11:30:36;;;;;;;20.93;15.83;;;9.70;99.90;;;;;;6179827;28;20548;-62
2020/12/07 11:33:40;;;;;;;17.83;15.40;;;9.70;99.90;;;;;;6179955;28;20516;-62
2020/12/07 11:36:51;;;;;;;18.90;14.73;;;9.70;99.90;;;;;;6180003;28;20485;-65
2020/12/07 11:39:59;;;;;;;15.93;14.23;;;9.80;99.90;;;;;;6179771;28;20485;-64
2020/12/07 11:43:13;;;;;;;20.63;16.20;;;9.80;99.90;;;;;;6179878;28;20514;-61
2020/12/07 11:46:17;;;;;;;23.23;16.07;;;9.80;99.90;;;;;;6179721;28;20476;-63
2020/12/07 11:49:20;;;;;;;21.60;16.47;;;9.50;99.90;;;;;;6178558;28;20949;-66
2020/12/07 11:52:23;;;;;;;23.13;15.97;;;9.50;99.90;;;;;;6179406;28;20480;-62
2020/12/07 11:55:25;;;;;;;20.13;16.00;;;9.40;99.90;;;;;;6179522;28;20476;-63
2020/12/07 11:58:27;;;;;;;20.20;14.43;;;9.50;99.90;;;;;;6179318;28;20484;-62
2020/12/07 12:01:31;;;;;;;23.73;16.53;;;9.70;99.90;;;;;;6172737;28;20482;-62
2020/12/07 12:04:34;;;;;;;18.30;15.27;;;9.80;99.90;;;;;;6155042;28;20962;-63
2020/12/07 12:07:37;;;;;;;20.10;15.20;;;9.80;99.90;;;;;;6155331;29;20485;-63
2020/12/07 12:10:39;;;;;;;17.33;15.53;;;10.10;99.90;;;;;;6178329;28;20966;-63
2020/12/07 12:13:42;;;;;;;16.10;12.23;;;10.40;99.90;;;;;;6178966;28;20829;-63
2020/12/07 12:16:44;;;;;;;18.27;15.17;;;10.40;99.90;;;;;;6179121;28;20568;-64
2020/12/07 12:19:46;;;;;;;15.60;13.10;;;10.40;99.90;;;;;;6178808;28;20977;-63
2020/12/07 12:22:49;;;;;;;18.17;13.30;;;10.30;99.90;;;;;;6178568;28;20994;-64
2020/12/07 12:25:52;;;;;;;16.07;14.23;;;10.30;99.90;;;;;;6178599;28;20485;-65
2020/12/07 12:28:54;;;;;;;16.07;13.83;;;10.30;99.90;;;;;;6178680;28;20482;-62
2020/12/07 12:31:57;;;;;;;16.07;14.20;;;10.40;99.90;;;;;;6178271;28;20486;-64
2020/12/07 12:34:59;;;;;;;16.40;14.63;;;12.20;99.90;;;;;;6178752;28;20489;-64
2020/12/07 12:38:02;;;;;;;14.20;12.70;;;14.70;99.80;;;;;;6178759;28;20470;-66
2020/12/07 12:41:06;;;;;;;15.87;13.70;;;15.40;96.60;;;;;;6178386;28;20821;-63
2020/12/07 12:44:08;;;;;;;14.80;13.23;;;15.90;95.40;;;;;;6178708;28;20982;-67
2020/12/07 12:47:10;;;;;;;14.77;12.20;;;15.60;94.90;;;;;;6178632;28;20477;-67
2020/12/07 12:50:13;;;;;;;15.13;13.50;;;15.30;94.40;;;;;;6178118;28;20485;-67
2020/12/07 12:53:16;;;;;;;14.70;13.07;;;15.20;94.70;;;;;;6178657;28;20468;-66
2020/12/07 12:56:22;;;;;;;14.60;12.47;;;15.50;93.90;;;;;;6178452;28;20454;-66
2020/12/07 12:59:24;;;;;;;15.90;13.03;;;15.30;93.70;;;;;;6178121;28;20443;-64
2020/12/07 13:02:30;;;;;;;14.60;13.20;;;14.90;94.00;;;;;;6178189;28;20538;-66
2020/12/07 13:05:32;;;;;;;17.20;13.30;;;14.40;94.80;;;;;;6178233;28;20450;-65
2020/12/07 13:08:36;;;;;;;15.83;14.27;;;13.50;96.10;;;;;;6178280;28;20481;-63
2020/12/07 13:11:38;;;;;;;16.17;14.10;;;13.00;97.30;;;;;;6178011;28;20693;-63
2020/12/07 13:14:41;;;;;;;17.27;14.23;;;12.50;98.20;;;;;;6178492;28;20480;-64
2020/12/07 13:17:50;;;;;;;15.30;13.70;;;11.90;99.20;;;;;;6168626;28;20796;-66
2020/12/07 13:20:56;;;;;;;17.10;13.60;;;11.20;99.90;;;;;;6194765;28;20473;-63
2020/12/07 13:24:03;;;;;;;15.60;13.50;;;10.80;99.90;;;;;;6196054;28;20556;-64
2020/12/07 13:27:18;;;;;;;15.00;12.80;;;10.70;99.90;;;;;;6196603;28;20989;-65
2020/12/07 13:30:23;;;;;;;16.60;13.97;;;11.00;99.90;;;;;;6198566;28;20881;-64
2020/12/07 13:33:26;;;;;;;19.00;15.70;;;11.30;99.90;;;;;;6199899;28;20472;-64
2020/12/07 13:36:28;;;;;;;14.73;12.87;;;11.20;99.90;;;;;;6192581;28;20504;-64
2020/12/07 13:39:32;;;;;;;20.70;14.50;;;11.00;99.90;;;;;;6194185;28;20996;-60
2020/12/07 13:42:34;;;;;;;18.10;15.37;;;10.80;99.90;;;;;;6179487;28;20985;-62
2020/12/07 13:45:36;;;;;;;17.27;15.13;;;10.70;99.90;;;;;;6187757;28;20480;-61
2020/12/07 13:48:41;;;;;;;19.37;15.90;;;10.30;99.90;;;;;;6193013;28;20464;-62
2020/12/07 13:51:45;;;;;;;18.70;14.97;;;10.10;99.90;;;;;;6198429;28;20556;-62
2020/12/07 13:54:49;;;;;;;19.00;15.67;;;10.00;99.90;;;;;;6189927;28;21154;-65
2020/12/07 13:57:51;;;;;;;21.37;18.50;;;9.90;99.90;;;;;;6196988;28;20615;-61
2020/12/07 14:00:55;;;;;;;20.10;16.57;;;9.60;99.90;;;;;;6199218;28;20480;-66
2020/12/07 14:04:00;;;;;;;19.50;17.50;;;9.50;99.90;;;;;;6177104;28;20469;-63
2020/12/07 14:07:03;;;;;;;18.30;15.90;;;9.40;99.90;;;;;;6177106;28;20557;-65
2020/12/07 14:10:06;;;;;;;19.93;16.73;;;9.40;99.90;;;;;;6176564;28;20478;-63
2020/12/07 14:13:11;;;;;;;22.17;16.63;;;9.40;99.90;;;;;;6176745;28;20807;-63
2020/12/07 14:16:17;;;;;;;19.83;16.10;;;9.30;99.90;;;;;;6177150;28;20474;-62
2020/12/07 14:19:44;;;;;;;20.27;15.87;;;9.30;99.90;;;;;;6176746;28;20474;-64
2020/12/07 14:22:57;;;;;;;19.13;16.17;;;9.40;99.90;;;;;;6172159;28;20489;-64
2020/12/07 14:26:12;;;;;;;18.10;15.57;;;9.50;99.90;;;;;;6176774;28;20564;-64
2020/12/07 14:39:46;;;;;;;23.27;17.73;;;9.10;99.90;;;;;;6177308;28;20474;-63
2020/12/07 14:42:50;;;;;;;25.53;19.57;;;8.90;99.90;;;;;;6176755;28;20479;-64
2020/12/07 14:45:59;;;;;;;23.17;19.50;;;8.80;99.90;;;;;;6180413;28;20501;-64
2020/12/07 14:49:01;;;;;;;23.07;19.07;;;8.60;99.90;;;;;;6182212;28;20843;-65
2020/12/07 14:52:06;;;;;;;22.90;18.77;;;8.60;99.90;;;;;;6177337;28;20478;-65
2020/12/07 14:55:15;;;;;;;25.10;19.07;;;8.60;99.90;;;;;;6176624;28;20485;-65
2020/12/07 15:02:05;;;;;;;26.50;20.43;;;8.40;99.90;;;;;;6191802;28;20479;-65
2020/12/07 15:05:24;;;;;;;23.30;18.30;;;8.20;99.90;;;;;;6176895;28;20474;-62
2020/12/07 15:12:16;;;;;;;25.20;20.43;;;8.30;99.90;;;;;;6186865;28;20488;-65
2020/12/07 15:15:19;;;;;;;22.57;19.50;;;8.40;99.90;;;;;;6188407;28;20520;-64
2020/12/07 15:18:24;;;;;;;24.67;20.60;;;8.40;99.90;;;;;;6187030;28;20794;-64
2020/12/07 15:21:27;;;;;;;26.20;19.70;;;8.40;99.90;;;;;;6185488;28;20988;-65
2020/12/07 15:24:29;;;;;;;22.13;18.10;;;8.50;99.90;;;;;;6191611;28;20473;-65
2020/12/07 15:27:31;;;;;;;33.80;19.83;;;8.50;99.90;;;;;;6183237;28;20468;-65
2020/12/07 15:30:35;;;;;;;23.73;19.53;;;8.50;99.90;;;;;;6193498;28;20491;-65
2020/12/07 15:33:38;;;;;;;23.07;18.93;;;8.50;99.90;;;;;;6192769;28;20493;-65
2020/12/07 15:36:41;;;;;;;22.80;19.10;;;8.40;99.90;;;;;;6190990;28;20473;-65
2020/12/07 15:39:43;;;;;;;22.53;20.10;;;8.50;99.90;;;;;;6188215;28;20474;-61
2020/12/07 15:42:45;;;;;;;27.50;20.40;;;8.40;99.90;;;;;;6190316;28;20466;-60
2020/12/07 15:45:52;;;;;;;22.37;18.43;;;8.40;99.90;;;;;;6192914;28;20473;-62
2020/12/07 15:48:54;;;;;;;22.53;19.97;;;8.40;99.90;;;;;;6189214;28;20817;-62
2020/12/07 15:51:57;;;;;;;23.10;18.90;;;8.50;99.90;;;;;;6190827;28;20877;-62
2020/12/07 15:54:59;;;;;;;22.60;19.17;;;8.50;99.90;;;;;;6192519;28;20470;-62
2020/12/07 15:58:02;;;;;;;25.80;20.27;;;8.50;99.90;;;;;;6187797;28;20496;-63
2020/12/07 16:01:06;;;;;;;24.73;20.20;;;8.60;99.90;;;;;;6188405;28;20474;-64
2020/12/07 16:04:09;;;;;;;23.80;19.30;;;8.60;99.90;;;;;;6180451;28;20812;-64
2020/12/07 16:07:11;;;;;;;27.03;18.90;;;8.60;99.90;;;;;;6182939;28;20965;-63
2020/12/07 16:10:14;;;;;;;24.53;20.20;;;8.60;99.90;;;;;;6186055;28;20556;-63
2020/12/07 16:13:16;;;;;;;20.77;18.00;;;8.60;99.90;;;;;;6192051;28;20469;-64
2020/12/07 16:16:20;;;;;;;24.43;19.60;;;8.50;99.90;;;;;;6194602;28;20461;-63
2020/12/07 16:19:22;;;;;;;38.20;34.40;;;8.40;99.90;;;;;;6203277;28;20479;-64
2020/12/07 16:22:25;;;;;;;32.83;25.47;;;8.40;99.90;;;;;;6203149;28;20826;-63
2020/12/07 16:25:28;;;;;;;25.50;22.80;;;8.30;99.90;;;;;;6203383;28;20517;-64
2020/12/07 16:28:30;;;;;;;28.33;25.33;;;8.30;99.90;;;;;;6203188;28;20480;-67